createdAt,value
2018-12-31T00:01:30.619Z,6.00
2018-12-31T00:03:58.032Z,5.97
2018-12-31T00:06:25.419Z,6.20
2018-12-31T00:08:52.832Z,5.37
2018-12-31T00:11:20.214Z,4.73
2018-12-31T00:13:47.668Z,5.30
2018-12-31T00:16:15.059Z,4.63
2018-12-31T00:18:42.474Z,5.20
2018-12-31T00:21:09.870Z,5.67
2018-12-31T00:23:37.277Z,5.23
2018-12-31T00:26:04.662Z,5.13
2018-12-31T00:28:32.081Z,4.70
2018-12-31T00:30:59.467Z,5.10
2018-12-31T00:33:26.876Z,5.30
2018-12-31T00:35:54.260Z,5.00
2018-12-31T00:38:21.730Z,5.30
2018-12-31T00:40:49.114Z,7.47
2018-12-31T00:43:16.523Z,5.13
2018-12-31T00:45:43.964Z,6.00
2018-12-31T00:48:11.385Z,4.87
2018-12-31T00:50:38.769Z,4.73
2018-12-31T00:53:06.178Z,3.60
2018-12-31T00:55:34.962Z,4.90
2018-12-31T00:58:03.671Z,4.57
2018-12-31T01:00:31.063Z,4.17
2018-12-31T01:02:58.488Z,4.70
2018-12-31T01:05:25.861Z,4.83
2018-12-31T01:07:54.337Z,3.43
2018-12-31T01:10:21.718Z,3.80
2018-12-31T01:12:49.101Z,4.60
2018-12-31T01:15:16.519Z,4.15
2018-12-31T01:17:43.900Z,4.40
2018-12-31T01:20:11.310Z,4.40
2018-12-31T01:22:38.690Z,3.60
2018-12-31T01:25:06.173Z,3.70
2018-12-31T01:27:33.549Z,4.07
2018-12-31T01:30:00.967Z,4.50
2018-12-31T01:32:28.344Z,4.10
2018-12-31T01:34:55.761Z,4.13
2018-12-31T01:37:23.141Z,3.37
2018-12-31T01:39:50.614Z,4.33
2018-12-31T01:42:17.993Z,3.70
2018-12-31T01:44:45.430Z,4.13
2018-12-31T01:47:12.806Z,3.40
2018-12-31T01:49:40.212Z,4.07
2018-12-31T01:52:07.597Z,3.77
2018-12-31T01:54:35.006Z,3.93
2018-12-31T01:57:02.480Z,3.97
2018-12-31T01:59:29.890Z,3.17
2018-12-31T02:01:58.466Z,3.77
2018-12-31T02:04:25.857Z,3.50
2018-12-31T02:06:53.238Z,3.03
2018-12-31T02:09:20.647Z,4.37
2018-12-31T02:11:48.033Z,3.40
2018-12-31T02:14:15.443Z,3.47
2018-12-31T02:16:42.857Z,3.67
2018-12-31T02:19:10.337Z,3.50
2018-12-31T02:21:37.729Z,3.87
2018-12-31T02:24:05.111Z,3.50
2018-12-31T02:26:32.619Z,5.70
2018-12-31T02:29:00.000Z,2.93
2018-12-31T02:31:27.422Z,3.60
2018-12-31T02:33:54.806Z,3.17
2018-12-31T02:36:22.218Z,3.00
2018-12-31T02:38:49.683Z,3.10
2018-12-31T02:41:17.152Z,2.67
2018-12-31T02:43:44.577Z,3.30
2018-12-31T02:46:12.068Z,2.50
2018-12-31T02:48:39.490Z,2.97
2018-12-31T02:51:06.900Z,3.20
2018-12-31T02:53:34.280Z,3.07
2018-12-31T02:56:01.697Z,3.10
2018-12-31T02:58:29.110Z,2.67
2018-12-31T03:00:56.529Z,2.90
2018-12-31T03:03:23.916Z,2.87
2018-12-31T03:05:52.445Z,2.70
2018-12-31T03:08:19.809Z,2.63
2018-12-31T03:10:47.217Z,2.80
2018-12-31T03:13:14.603Z,2.90
2018-12-31T03:15:42.019Z,2.60
2018-12-31T03:18:09.391Z,2.67
2018-12-31T03:20:36.809Z,2.60
2018-12-31T03:23:04.298Z,2.70
2018-12-31T03:25:31.727Z,2.27
2018-12-31T03:27:59.210Z,2.87
2018-12-31T03:30:26.670Z,2.80
2018-12-31T03:32:54.088Z,2.30
2018-12-31T03:35:21.486Z,1.87
2018-12-31T03:37:48.896Z,2.60
2018-12-31T03:40:16.352Z,2.53
2018-12-31T03:42:43.760Z,1.90
2018-12-31T03:45:11.151Z,2.20
2018-12-31T03:47:38.558Z,2.33
2018-12-31T03:50:06.714Z,2.13
2018-12-31T03:52:34.130Z,2.30
2018-12-31T03:55:01.561Z,2.47
2018-12-31T03:57:28.932Z,2.50
2018-12-31T03:59:56.377Z,2.83
2018-12-31T04:02:23.855Z,1.90
2018-12-31T04:04:51.235Z,2.27
2018-12-31T04:07:18.644Z,2.27
2018-12-31T04:09:46.024Z,2.47
2018-12-31T04:12:13.445Z,2.00
2018-12-31T04:14:40.841Z,2.93
2018-12-31T04:17:08.287Z,1.97
2018-12-31T04:19:35.676Z,2.00
2018-12-31T04:22:03.099Z,2.47
2018-12-31T04:24:30.526Z,1.60
2018-12-31T04:26:57.936Z,2.10
2018-12-31T04:29:25.332Z,1.80
2018-12-31T04:31:52.745Z,2.33
2018-12-31T04:34:20.150Z,1.83
2018-12-31T04:36:47.641Z,2.00
2018-12-31T04:39:15.021Z,1.60
2018-12-31T04:41:42.405Z,2.03
2018-12-31T04:44:09.906Z,1.90
2018-12-31T04:46:37.334Z,2.07
2018-12-31T04:49:04.743Z,2.30
2018-12-31T04:51:32.201Z,2.10
2018-12-31T04:53:59.655Z,1.70
2018-12-31T04:56:27.063Z,1.80
2018-12-31T04:58:54.469Z,1.87
2018-12-31T05:01:21.886Z,1.80
2018-12-31T05:03:49.357Z,2.17
2018-12-31T05:06:16.749Z,2.00
2018-12-31T05:08:44.155Z,1.83
2018-12-31T05:11:11.598Z,1.80
2018-12-31T05:13:39.006Z,1.57
2018-12-31T05:16:06.392Z,1.53
2018-12-31T05:18:33.801Z,1.47
2018-12-31T05:21:01.181Z,2.00
2018-12-31T05:23:28.602Z,1.57
2018-12-31T05:25:56.048Z,1.47
2018-12-31T05:28:23.449Z,1.77
2018-12-31T05:30:50.838Z,1.50
2018-12-31T05:33:18.253Z,2.13
2018-12-31T05:35:45.638Z,1.47
2018-12-31T05:38:13.057Z,1.67
2018-12-31T05:40:40.450Z,1.60
2018-12-31T05:43:07.857Z,2.20
2018-12-31T05:45:35.238Z,1.63
2018-12-31T05:48:02.645Z,1.60
2018-12-31T05:50:30.039Z,1.47
2018-12-31T05:52:57.589Z,1.10
2018-12-31T05:55:24.998Z,1.40
2018-12-31T05:57:52.381Z,1.57
2018-12-31T06:00:19.802Z,1.70
2018-12-31T06:02:47.181Z,1.20
2018-12-31T06:05:14.602Z,1.13
2018-12-31T06:07:41.984Z,1.93
2018-12-31T06:10:09.401Z,1.30
2018-12-31T06:12:36.786Z,1.43
2018-12-31T06:15:04.764Z,1.60
2018-12-31T06:17:32.150Z,1.43
2018-12-31T06:19:59.615Z,1.80
2018-12-31T06:22:26.997Z,1.10
2018-12-31T06:24:54.410Z,1.53
2018-12-31T06:27:21.792Z,2.10
2018-12-31T06:29:49.242Z,1.33
2018-12-31T06:32:16.626Z,1.30
2018-12-31T06:34:44.042Z,1.47
2018-12-31T06:37:11.426Z,1.47
2018-12-31T06:39:38.848Z,1.80
2018-12-31T06:42:06.240Z,1.20
2018-12-31T06:44:33.655Z,1.47
2018-12-31T06:47:01.042Z,1.80
2018-12-31T06:49:28.449Z,1.40
2018-12-31T06:51:55.834Z,1.30
2018-12-31T06:54:23.250Z,1.20
2018-12-31T06:56:50.725Z,1.80
2018-12-31T06:59:18.145Z,1.60
2018-12-31T07:01:45.532Z,0.90
2018-12-31T07:04:13.841Z,1.42
2018-12-31T07:06:41.273Z,2.17
2018-12-31T07:09:08.653Z,1.50
2018-12-31T07:11:36.069Z,1.60
2018-12-31T07:14:03.560Z,1.77
2018-12-31T07:16:31.034Z,1.67
2018-12-31T07:18:58.419Z,2.00
2018-12-31T07:21:25.838Z,1.40
2018-12-31T07:23:53.264Z,1.93
2018-12-31T07:26:20.674Z,1.67
2018-12-31T07:28:48.061Z,4.43
2018-12-31T07:31:15.475Z,2.37
2018-12-31T07:33:42.856Z,2.90
2018-12-31T07:36:10.376Z,2.10
2018-12-31T07:38:37.805Z,2.53
2018-12-31T07:41:05.218Z,1.77
2018-12-31T07:43:32.608Z,49.07
2018-12-31T07:46:00.100Z,33.80
2018-12-31T07:48:27.497Z,41.50
2018-12-31T07:50:54.923Z,34.27
2018-12-31T07:53:22.308Z,26.00
2018-12-31T07:55:49.751Z,20.10
2018-12-31T07:58:17.149Z,14.50
2018-12-31T08:00:44.652Z,14.27
2018-12-31T08:03:12.043Z,10.93
2018-12-31T08:05:39.557Z,11.00
2018-12-31T08:08:06.986Z,10.90
2018-12-31T08:10:34.407Z,8.67
2018-12-31T08:13:01.800Z,10.33
2018-12-31T08:15:29.218Z,7.40
2018-12-31T08:17:56.676Z,6.17
2018-12-31T08:20:24.091Z,7.10
2018-12-31T08:22:51.525Z,6.90
2018-12-31T08:25:19.013Z,6.00
2018-12-31T08:27:46.404Z,5.20
2018-12-31T08:30:13.929Z,4.87
2018-12-31T08:32:41.318Z,4.90
2018-12-31T08:35:08.811Z,4.60
2018-12-31T08:37:36.222Z,3.70
2018-12-31T08:40:04.657Z,3.40
2018-12-31T08:42:32.070Z,4.90
2018-12-31T08:44:59.564Z,3.33
2018-12-31T08:47:26.978Z,2.73
2018-12-31T08:49:54.365Z,2.97
2018-12-31T08:52:21.859Z,2.40
2018-12-31T08:54:49.289Z,2.40
2018-12-31T08:57:16.702Z,2.70
2018-12-31T08:59:44.108Z,2.47
2018-12-31T09:02:11.531Z,2.20
2018-12-31T09:04:38.914Z,1.80
2018-12-31T09:07:06.343Z,2.57
2018-12-31T09:09:33.733Z,3.60
2018-12-31T09:12:01.215Z,2.10
2018-12-31T09:14:28.604Z,2.23
2018-12-31T09:16:56.027Z,1.60
2018-12-31T09:19:23.564Z,2.33
2018-12-31T09:21:50.975Z,2.00
2018-12-31T09:24:18.357Z,1.97
2018-12-31T09:26:45.957Z,1.37
2018-12-31T09:29:13.410Z,1.83
2018-12-31T09:31:40.851Z,1.70
2018-12-31T09:34:08.225Z,2.00
2018-12-31T09:36:36.622Z,1.70
2018-12-31T09:39:05.702Z,2.27
2018-12-31T09:41:33.116Z,2.00
2018-12-31T09:44:00.584Z,1.80
2018-12-31T09:46:27.996Z,2.00
2018-12-31T09:48:55.372Z,1.60
2018-12-31T09:51:22.797Z,1.90
2018-12-31T09:53:50.177Z,1.40
2018-12-31T09:56:17.591Z,1.67
2018-12-31T09:58:44.974Z,1.80
2018-12-31T10:01:12.355Z,2.00
2018-12-31T10:03:39.768Z,1.40
2018-12-31T10:06:07.226Z,1.60
2018-12-31T10:08:34.637Z,1.53
2018-12-31T10:11:02.014Z,1.32
2018-12-31T10:13:29.433Z,1.50
2018-12-31T10:15:56.806Z,1.40
2018-12-31T10:18:24.212Z,1.87
2018-12-31T10:20:51.597Z,1.50
2018-12-31T10:23:19.025Z,1.53
2018-12-31T10:25:46.392Z,2.13
2018-12-31T10:28:13.801Z,1.80
2018-12-31T10:30:41.191Z,1.60
2018-12-31T10:33:08.592Z,1.70
2018-12-31T10:35:36.050Z,1.80
2018-12-31T10:38:03.463Z,1.47
2018-12-31T10:40:30.859Z,1.20
2018-12-31T10:42:58.270Z,1.83
2018-12-31T10:45:25.652Z,1.37
2018-12-31T10:47:53.080Z,1.40
2018-12-31T10:50:20.458Z,1.87
2018-12-31T10:52:47.870Z,1.40
2018-12-31T10:55:15.258Z,1.70
2018-12-31T10:57:42.674Z,2.00
2018-12-31T11:00:10.125Z,1.73
2018-12-31T11:02:37.534Z,1.30
2018-12-31T11:05:05.787Z,1.70
2018-12-31T11:07:33.196Z,1.73
2018-12-31T11:10:00.678Z,2.03
2018-12-31T11:12:28.042Z,2.17
2018-12-31T11:14:55.454Z,1.60
2018-12-31T11:17:22.844Z,2.77
2018-12-31T11:19:50.265Z,1.80
2018-12-31T11:22:17.655Z,1.93
2018-12-31T11:24:45.070Z,1.70
2018-12-31T11:27:12.459Z,1.70
2018-12-31T11:29:39.871Z,1.93
2018-12-31T11:32:07.257Z,2.27
2018-12-31T11:34:34.670Z,2.03
2018-12-31T11:37:02.044Z,2.30
2018-12-31T11:39:29.470Z,2.20
2018-12-31T11:41:58.114Z,3.67
2018-12-31T11:44:25.707Z,2.40
2018-12-31T11:46:53.147Z,2.40
2018-12-31T11:49:20.560Z,2.60
2018-12-31T11:51:47.946Z,2.73
2018-12-31T11:54:15.355Z,3.70
2018-12-31T11:56:42.738Z,1.87
2018-12-31T11:59:10.255Z,1.90
2018-12-31T12:01:37.687Z,2.40
2018-12-31T12:04:05.100Z,2.00
2018-12-31T12:06:32.598Z,2.03
2018-12-31T12:09:00.011Z,2.17
2018-12-31T12:11:27.395Z,1.60
2018-12-31T12:13:55.245Z,2.23
2018-12-31T12:16:22.630Z,2.23
2018-12-31T12:18:50.122Z,1.80
2018-12-31T12:21:17.509Z,1.93
2018-12-31T12:23:44.923Z,2.60
2018-12-31T12:26:12.313Z,2.60
2018-12-31T12:28:39.724Z,1.67
2018-12-31T12:31:07.173Z,1.80
2018-12-31T12:33:34.563Z,1.90
2018-12-31T12:36:02.279Z,2.20
2018-12-31T12:38:29.752Z,2.40
2018-12-31T12:40:57.167Z,1.73
2018-12-31T12:43:24.542Z,1.73
2018-12-31T12:45:51.987Z,2.60
2018-12-31T12:48:19.376Z,2.00
2018-12-31T12:50:46.785Z,1.60
2018-12-31T12:53:15.167Z,1.90
2018-12-31T12:55:42.699Z,2.57
2018-12-31T12:58:10.067Z,1.97
2018-12-31T13:00:37.483Z,2.00
2018-12-31T13:03:05.066Z,1.67
2018-12-31T13:05:32.485Z,2.30
2018-12-31T13:07:59.867Z,1.63
2018-12-31T13:10:27.281Z,1.87
2018-12-31T13:12:54.662Z,2.10
2018-12-31T13:15:22.081Z,2.27
2018-12-31T13:17:49.473Z,2.07
2018-12-31T13:20:16.886Z,1.97
2018-12-31T13:22:44.277Z,2.13
2018-12-31T13:25:11.687Z,2.10
2018-12-31T13:27:39.075Z,2.23
2018-12-31T13:30:06.500Z,2.53
2018-12-31T13:32:33.889Z,2.57
2018-12-31T13:35:01.418Z,2.30
2018-12-31T13:37:28.782Z,2.53
2018-12-31T13:39:56.197Z,2.33
2018-12-31T13:42:23.590Z,1.80
2018-12-31T13:44:51.294Z,1.90
2018-12-31T13:47:18.678Z,1.60
2018-12-31T13:49:46.141Z,1.87
2018-12-31T13:52:13.523Z,2.37
2018-12-31T13:54:41.225Z,2.30
2018-12-31T13:57:08.683Z,2.97
2018-12-31T13:59:37.282Z,1.90
2018-12-31T14:02:04.920Z,1.70
2018-12-31T14:04:32.726Z,2.37
2018-12-31T14:07:00.899Z,1.73
2018-12-31T14:09:28.638Z,1.80
2018-12-31T14:11:56.292Z,1.67
2018-12-31T14:14:23.663Z,2.20
2018-12-31T14:16:51.082Z,2.20
2018-12-31T14:19:18.463Z,2.03
2018-12-31T14:21:45.879Z,2.37
2018-12-31T14:24:13.259Z,1.90
2018-12-31T14:26:41.103Z,2.23
2018-12-31T14:29:08.493Z,2.17
2018-12-31T14:31:35.911Z,2.43
2018-12-31T14:34:03.324Z,2.90
2018-12-31T14:36:30.748Z,2.80
2018-12-31T14:38:58.437Z,2.60
2018-12-31T14:41:26.018Z,2.40
2018-12-31T14:43:53.409Z,2.60
2018-12-31T14:46:20.820Z,6.60
2018-12-31T14:48:48.215Z,3.60
2018-12-31T14:51:15.714Z,2.97
2018-12-31T14:53:43.094Z,2.00
2018-12-31T14:56:10.481Z,2.50
2018-12-31T14:58:37.890Z,2.00
2018-12-31T15:01:05.277Z,2.80
2018-12-31T15:03:32.730Z,1.97
2018-12-31T15:06:00.182Z,2.63
2018-12-31T15:08:28.862Z,2.50
2018-12-31T15:10:56.236Z,2.50
2018-12-31T15:13:23.656Z,2.40
2018-12-31T15:15:51.041Z,2.60
2018-12-31T15:18:18.619Z,2.87
2018-12-31T15:20:46.232Z,3.10
2018-12-31T15:23:13.615Z,2.60
2018-12-31T15:25:41.030Z,2.20
2018-12-31T15:28:08.574Z,2.43
2018-12-31T15:30:36.009Z,2.80
2018-12-31T15:33:03.913Z,1.80
2018-12-31T15:35:31.387Z,2.60
2018-12-31T15:37:59.039Z,2.43
2018-12-31T15:40:26.403Z,2.07
2018-12-31T15:42:53.808Z,2.20
2018-12-31T15:45:21.194Z,2.70
2018-12-31T15:47:48.908Z,2.53
2018-12-31T15:50:16.298Z,2.20
2018-12-31T15:52:43.812Z,2.50
2018-12-31T15:55:11.195Z,2.00
2018-12-31T15:57:38.646Z,2.57
2018-12-31T16:00:07.272Z,3.03
2018-12-31T16:02:34.898Z,2.77
2018-12-31T16:05:02.283Z,2.87
2018-12-31T16:07:29.689Z,3.40
2018-12-31T16:09:57.086Z,2.60
2018-12-31T16:12:24.479Z,2.90
2018-12-31T16:14:51.890Z,2.83
2018-12-31T16:17:19.276Z,2.90
2018-12-31T16:19:46.685Z,2.50
2018-12-31T16:22:14.073Z,2.97
2018-12-31T16:24:41.490Z,3.27
2018-12-31T16:27:08.875Z,2.50
2018-12-31T16:29:36.384Z,1.93
2018-12-31T16:32:03.767Z,2.53
2018-12-31T16:34:31.182Z,2.27
2018-12-31T16:36:58.565Z,3.27
2018-12-31T16:39:25.978Z,3.70
2018-12-31T16:41:53.452Z,2.13
2018-12-31T16:44:21.256Z,2.80
2018-12-31T16:46:48.758Z,4.30
2018-12-31T16:49:16.273Z,3.10
2018-12-31T16:51:43.668Z,2.90
2018-12-31T16:54:11.079Z,3.10
2018-12-31T16:56:38.460Z,2.70
2018-12-31T16:59:05.877Z,2.73
2018-12-31T17:01:34.874Z,2.30
2018-12-31T17:04:02.348Z,2.77
2018-12-31T17:06:29.730Z,2.50
2018-12-31T17:08:57.191Z,2.90
2018-12-31T17:11:24.731Z,2.00
2018-12-31T17:13:52.246Z,2.47
2018-12-31T17:16:20.863Z,3.80
2018-12-31T17:18:48.290Z,2.37
2018-12-31T17:21:15.677Z,2.23
2018-12-31T17:23:43.100Z,2.77
2018-12-31T17:26:10.792Z,5.67
2018-12-31T17:28:38.219Z,3.13
2018-12-31T17:31:05.583Z,2.50
2018-12-31T17:33:34.007Z,3.40
2018-12-31T17:36:01.448Z,3.00
2018-12-31T17:38:28.934Z,3.03
2018-12-31T17:40:56.623Z,2.83
2018-12-31T17:43:24.003Z,3.37
2018-12-31T17:45:51.407Z,2.83
2018-12-31T17:48:18.972Z,3.43
2018-12-31T17:50:46.417Z,3.57
2018-12-31T17:53:13.802Z,4.80
2018-12-31T17:55:41.220Z,3.33
2018-12-31T17:58:08.613Z,3.70
2018-12-31T18:00:36.031Z,3.13
2018-12-31T18:03:03.434Z,3.80
2018-12-31T18:05:30.861Z,4.10
2018-12-31T18:07:58.249Z,3.80
2018-12-31T18:10:25.660Z,3.20
2018-12-31T18:12:53.050Z,4.80
2018-12-31T18:15:20.467Z,4.10
2018-12-31T18:17:47.861Z,3.83
2018-12-31T18:20:15.403Z,3.93
2018-12-31T18:22:43.090Z,3.67
2018-12-31T18:25:10.503Z,3.90
2018-12-31T18:27:37.985Z,4.00
2018-12-31T18:30:06.327Z,4.00
2018-12-31T18:32:33.713Z,3.20
2018-12-31T18:35:01.117Z,3.13
2018-12-31T18:37:28.716Z,3.87
2018-12-31T18:39:57.964Z,3.77
2018-12-31T18:42:25.303Z,3.30
2018-12-31T18:44:52.707Z,3.20
2018-12-31T18:47:20.094Z,4.60
2018-12-31T18:49:47.515Z,3.80
2018-12-31T18:52:15.048Z,4.33
2018-12-31T18:54:42.902Z,3.60
2018-12-31T18:57:10.298Z,3.63
2018-12-31T18:59:37.677Z,3.57
2018-12-31T19:02:05.094Z,4.03
2018-12-31T19:04:32.778Z,3.17
2018-12-31T19:07:00.188Z,4.40
2018-12-31T19:09:27.587Z,3.80
2018-12-31T19:11:54.992Z,3.20
2018-12-31T19:14:22.375Z,3.40
2018-12-31T19:16:49.786Z,3.07
2018-12-31T19:19:17.577Z,4.00
2018-12-31T19:21:44.985Z,3.50
2018-12-31T19:24:12.368Z,2.90
2018-12-31T19:26:40.058Z,3.27
2018-12-31T19:29:07.417Z,3.20
2018-12-31T19:31:34.906Z,2.67
2018-12-31T19:34:02.704Z,4.90
2018-12-31T19:36:30.126Z,3.40
2018-12-31T19:38:57.510Z,3.27
2018-12-31T19:41:24.917Z,3.33
2018-12-31T19:43:52.305Z,5.17
2018-12-31T19:46:19.713Z,4.10
2018-12-31T19:48:47.203Z,4.00
2018-12-31T19:51:14.650Z,3.23
2018-12-31T19:53:42.037Z,3.87
2018-12-31T19:56:09.455Z,4.93
2018-12-31T19:58:36.840Z,3.90
2018-12-31T20:01:06.230Z,3.77
2018-12-31T20:03:33.300Z,3.33
2018-12-31T20:06:00.735Z,4.23
2018-12-31T20:08:28.166Z,3.13
2018-12-31T20:10:55.662Z,3.03
2018-12-31T20:13:23.052Z,3.40
2018-12-31T20:15:52.083Z,3.90
2018-12-31T20:18:19.553Z,3.50
2018-12-31T20:20:46.965Z,3.63
2018-12-31T20:23:14.346Z,3.23
2018-12-31T20:25:41.735Z,3.37
2018-12-31T20:28:09.158Z,3.97
2018-12-31T20:30:36.533Z,3.80
2018-12-31T20:33:04.018Z,3.50
2018-12-31T20:35:31.401Z,3.80
2018-12-31T20:37:58.826Z,4.00
2018-12-31T20:40:26.280Z,3.23
2018-12-31T20:42:53.707Z,2.87
2018-12-31T20:45:21.086Z,3.23
2018-12-31T20:47:49.667Z,3.50
2018-12-31T20:50:17.050Z,3.20
2018-12-31T20:52:44.464Z,4.23
2018-12-31T20:55:11.857Z,3.10
2018-12-31T20:57:39.257Z,2.77
2018-12-31T21:00:07.846Z,3.60
2018-12-31T21:02:35.466Z,3.20
2018-12-31T21:05:02.862Z,5.00
2018-12-31T21:07:30.281Z,4.30
2018-12-31T21:09:57.672Z,3.70
2018-12-31T21:12:25.085Z,3.50
2018-12-31T21:14:52.465Z,2.80
2018-12-31T21:17:19.883Z,3.10
2018-12-31T21:19:47.266Z,3.80
2018-12-31T21:22:14.682Z,3.35
2018-12-31T21:24:42.065Z,4.00
2018-12-31T21:27:09.486Z,4.10
2018-12-31T21:29:36.869Z,3.70
2018-12-31T21:32:04.302Z,3.70
2018-12-31T21:34:31.683Z,3.53
2018-12-31T21:36:59.123Z,3.80
2018-12-31T21:39:26.530Z,4.20
2018-12-31T21:41:53.946Z,4.70
2018-12-31T21:44:21.329Z,3.73
2018-12-31T21:46:48.714Z,3.00
2018-12-31T21:49:16.203Z,3.13
2018-12-31T21:51:43.626Z,3.87
2018-12-31T21:54:11.038Z,3.63
2018-12-31T21:56:38.437Z,3.33
2018-12-31T21:59:05.858Z,3.80
2018-12-31T22:01:33.250Z,3.30
2018-12-31T22:04:00.738Z,3.67
2018-12-31T22:06:28.169Z,2.97
2018-12-31T22:08:55.585Z,4.30
2018-12-31T22:11:22.991Z,4.60
2018-12-31T22:13:50.398Z,4.10
2018-12-31T22:16:17.790Z,4.00
2018-12-31T22:18:45.203Z,4.37
2018-12-31T22:21:12.590Z,4.03
2018-12-31T22:23:40.006Z,3.00
2018-12-31T22:26:07.388Z,3.87
2018-12-31T22:28:34.905Z,3.57
2018-12-31T22:31:02.304Z,3.67
2018-12-31T22:33:29.722Z,3.40
2018-12-31T22:35:57.109Z,3.70
2018-12-31T22:38:24.518Z,2.60
2018-12-31T22:40:52.013Z,4.70
2018-12-31T22:43:19.422Z,3.93
2018-12-31T22:45:46.809Z,3.63
2018-12-31T22:48:14.220Z,2.87
2018-12-31T22:50:41.611Z,4.10
2018-12-31T22:53:09.025Z,3.80
2018-12-31T22:55:36.409Z,3.37
2018-12-31T22:58:04.199Z,3.23
2018-12-31T23:00:31.986Z,4.40
2018-12-31T23:02:59.374Z,6.70
2018-12-31T23:05:26.874Z,91.53
2018-12-31T23:07:54.270Z,26.93
2018-12-31T23:10:21.693Z,22.10
2018-12-31T23:12:49.380Z,18.73
2018-12-31T23:15:17.182Z,21.33
2018-12-31T23:17:44.582Z,28.40
2018-12-31T23:20:12.786Z,19.60
2018-12-31T23:22:40.174Z,19.43
2018-12-31T23:25:07.595Z,14.10
2018-12-31T23:27:34.986Z,12.10
2018-12-31T23:30:02.401Z,17.00
2018-12-31T23:32:29.798Z,18.57
2018-12-31T23:34:57.213Z,19.50
2018-12-31T23:37:24.601Z,17.57
2018-12-31T23:39:52.022Z,19.83
2018-12-31T23:42:19.419Z,22.93
2018-12-31T23:44:52.855Z,24.80
2018-12-31T23:47:15.886Z,25.63
2018-12-31T23:49:43.301Z,23.60
2018-12-31T23:52:10.698Z,19.10
2018-12-31T23:54:38.515Z,21.47
2018-12-31T23:57:05.908Z,17.67
2018-12-31T23:59:33.394Z,10.43
